sensor_id;sensor_type;location;lat;lon;timestamp;temperature;humidity
60848;DHT22;46681;47.696;9.140;2022-08-19T00:01:57;21.30;71.40
60848;DHT22;46681;47.696;9.140;2022-08-19T00:04:29;21.30;71.40
60848;DHT22;46681;47.696;9.140;2022-08-19T00:06:55;21.30;71.50
60848;DHT22;46681;47.696;9.140;2022-08-19T00:09:23;21.30;71.40
60848;DHT22;46681;47.696;9.140;2022-08-19T00:11:55;21.30;71.50
60848;DHT22;46681;47.696;9.140;2022-08-19T00:14:23;21.30;71.50
60848;DHT22;46681;47.696;9.140;2022-08-19T00:16:55;21.30;71.60
60848;DHT22;46681;47.696;9.140;2022-08-19T00:19:24;21.30;71.80
60848;DHT22;46681;47.696;9.140;2022-08-19T00:21:49;21.30;71.70
60848;DHT22;46681;47.696;9.140;2022-08-19T00:24:18;21.30;71.90
60848;DHT22;46681;47.696;9.140;2022-08-19T00:26:51;21.30;71.80
60848;DHT22;46681;47.696;9.140;2022-08-19T00:29:18;21.30;72.40
60848;DHT22;46681;47.696;9.140;2022-08-19T00:31:47;21.30;71.90
60848;DHT22;46681;47.696;9.140;2022-08-19T00:34:16;21.30;72.00
60848;DHT22;46681;47.696;9.140;2022-08-19T00:36:42;21.30;72.10
60848;DHT22;46681;47.696;9.140;2022-08-19T00:39:11;21.30;72.20
60848;DHT22;46681;47.696;9.140;2022-08-19T00:41:40;21.30;72.80
60848;DHT22;46681;47.696;9.140;2022-08-19T00:44:14;21.30;72.80
60848;DHT22;46681;47.696;9.140;2022-08-19T00:46:44;21.30;73.10
60848;DHT22;46681;47.696;9.140;2022-08-19T00:49:29;21.30;73.10
60848;DHT22;46681;47.696;9.140;2022-08-19T00:52:03;21.30;73.10
60848;DHT22;46681;47.696;9.140;2022-08-19T00:54:30;21.30;73.10
60848;DHT22;46681;47.696;9.140;2022-08-19T00:56:55;21.30;73.10
60848;DHT22;46681;47.696;9.140;2022-08-19T00:59:21;21.30;73.10
60848;DHT22;46681;47.696;9.140;2022-08-19T01:01:47;21.30;73.20
60848;DHT22;46681;47.696;9.140;2022-08-19T01:04:17;21.30;73.30
60848;DHT22;46681;47.696;9.140;2022-08-19T01:06:46;21.30;73.10
60848;DHT22;46681;47.696;9.140;2022-08-19T01:09:13;21.30;73.20
60848;DHT22;46681;47.696;9.140;2022-08-19T01:11:44;21.30;73.60
60848;DHT22;46681;47.696;9.140;2022-08-19T01:14:11;21.30;73.20
60848;DHT22;46681;47.696;9.140;2022-08-19T01:16:40;21.30;73.10
60848;DHT22;46681;47.696;9.140;2022-08-19T01:19:29;21.30;73.00
60848;DHT22;46681;47.696;9.140;2022-08-19T01:22:02;21.30;73.00
60848;DHT22;46681;47.696;9.140;2022-08-19T01:24:32;21.30;73.20
60848;DHT22;46681;47.696;9.140;2022-08-19T01:27:02;21.30;73.20
60848;DHT22;46681;47.696;9.140;2022-08-19T01:29:30;21.30;73.20
60848;DHT22;46681;47.696;9.140;2022-08-19T01:31:58;21.30;73.10
60848;DHT22;46681;47.696;9.140;2022-08-19T01:34:24;21.30;73.10
60848;DHT22;46681;47.696;9.140;2022-08-19T01:36:50;21.30;73.10
60848;DHT22;46681;47.696;9.140;2022-08-19T01:39:24;21.30;73.10
60848;DHT22;46681;47.696;9.140;2022-08-19T01:41:50;21.30;73.20
60848;DHT22;46681;47.696;9.140;2022-08-19T01:44:19;21.30;73.20
60848;DHT22;46681;47.696;9.140;2022-08-19T01:46:49;21.30;73.50
60848;DHT22;46681;47.696;9.140;2022-08-19T01:49:16;21.30;73.60
60848;DHT22;46681;47.696;9.140;2022-08-19T01:51:49;21.30;73.50
60848;DHT22;46681;47.696;9.140;2022-08-19T01:54:18;21.30;73.50
60848;DHT22;46681;47.696;9.140;2022-08-19T01:56:50;21.30;73.40
60848;DHT22;46681;47.696;9.140;2022-08-19T01:59:20;21.20;73.20
60848;DHT22;46681;47.696;9.140;2022-08-19T02:01:48;21.20;73.10
60848;DHT22;46681;47.696;9.140;2022-08-19T02:04:14;21.20;73.00
60848;DHT22;46681;47.696;9.140;2022-08-19T02:06:44;21.20;72.90
60848;DHT22;46681;47.696;9.140;2022-08-19T02:09:13;21.20;72.80
60848;DHT22;46681;47.696;9.140;2022-08-19T02:11:38;21.20;72.80
60848;DHT22;46681;47.696;9.140;2022-08-19T02:14:06;21.20;72.80
60848;DHT22;46681;47.696;9.140;2022-08-19T02:16:32;21.30;72.80
60848;DHT22;46681;47.696;9.140;2022-08-19T02:18:58;21.20;72.60
60848;DHT22;46681;47.696;9.140;2022-08-19T02:21:25;21.20;72.50
60848;DHT22;46681;47.696;9.140;2022-08-19T02:23:51;21.20;72.50
60848;DHT22;46681;47.696;9.140;2022-08-19T02:26:17;21.20;72.40
60848;DHT22;46681;47.696;9.140;2022-08-19T02:28:46;21.20;72.50
60848;DHT22;46681;47.696;9.140;2022-08-19T02:31:17;21.20;72.60
60848;DHT22;46681;47.696;9.140;2022-08-19T02:33:43;21.20;72.60
60848;DHT22;46681;47.696;9.140;2022-08-19T02:36:13;21.20;72.50
60848;DHT22;46681;47.696;9.140;2022-08-19T02:38:40;21.20;72.40
60848;DHT22;46681;47.696;9.140;2022-08-19T02:41:14;21.20;72.50
60848;DHT22;46681;47.696;9.140;2022-08-19T02:43:42;21.20;72.50
60848;DHT22;46681;47.696;9.140;2022-08-19T02:48:39;21.20;72.30
60848;DHT22;46681;47.696;9.140;2022-08-19T02:51:07;21.20;72.60
60848;DHT22;46681;47.696;9.140;2022-08-19T02:53:32;21.20;72.80
60848;DHT22;46681;47.696;9.140;2022-08-19T02:55:58;21.20;73.20
60848;DHT22;46681;47.696;9.140;2022-08-19T02:58:26;21.20;72.70
60848;DHT22;46681;47.696;9.140;2022-08-19T03:00:56;21.20;72.60
60848;DHT22;46681;47.696;9.140;2022-08-19T03:03:25;21.10;72.60
60848;DHT22;46681;47.696;9.140;2022-08-19T03:06:02;21.10;72.60
60848;DHT22;46681;47.696;9.140;2022-08-19T03:08:28;21.10;72.50
60848;DHT22;46681;47.696;9.140;2022-08-19T03:10:57;21.10;72.50
60848;DHT22;46681;47.696;9.140;2022-08-19T03:13:24;21.10;72.40
60848;DHT22;46681;47.696;9.140;2022-08-19T03:15:50;21.10;72.40
60848;DHT22;46681;47.696;9.140;2022-08-19T03:18:17;21.10;72.40
60848;DHT22;46681;47.696;9.140;2022-08-19T03:20:49;21.10;72.30
60848;DHT22;46681;47.696;9.140;2022-08-19T03:23:17;21.10;72.40
60848;DHT22;46681;47.696;9.140;2022-08-19T03:25:52;21.10;72.30
60848;DHT22;46681;47.696;9.140;2022-08-19T03:28:23;21.10;72.30
60848;DHT22;46681;47.696;9.140;2022-08-19T03:31:05;21.10;72.30
60848;DHT22;46681;47.696;9.140;2022-08-19T03:33:39;21.10;72.40
60848;DHT22;46681;47.696;9.140;2022-08-19T03:36:28;21.10;72.40
60848;DHT22;46681;47.696;9.140;2022-08-19T03:39:03;21.10;72.40
60848;DHT22;46681;47.696;9.140;2022-08-19T03:41:39;21.10;72.50
60848;DHT22;46681;47.696;9.140;2022-08-19T03:44:07;21.10;72.50
60848;DHT22;46681;47.696;9.140;2022-08-19T03:46:34;21.10;72.60
60848;DHT22;46681;47.696;9.140;2022-08-19T03:49:04;21.10;72.50
60848;DHT22;46681;47.696;9.140;2022-08-19T03:51:38;21.10;72.60
60848;DHT22;46681;47.696;9.140;2022-08-19T03:54:20;21.10;72.60
60848;DHT22;46681;47.696;9.140;2022-08-19T03:57:02;21.10;72.50
60848;DHT22;46681;47.696;9.140;2022-08-19T03:59:38;21.10;72.50
60848;DHT22;46681;47.696;9.140;2022-08-19T04:02:12;21.10;72.40
60848;DHT22;46681;47.696;9.140;2022-08-19T04:04:42;21.10;72.60
60848;DHT22;46681;47.696;9.140;2022-08-19T04:07:15;21.10;72.50
60848;DHT22;46681;47.696;9.140;2022-08-19T04:09:47;21.10;72.60
60848;DHT22;46681;47.696;9.140;2022-08-19T04:12:14;21.10;72.50
60848;DHT22;46681;47.696;9.140;2022-08-19T04:14:41;21.10;72.60
60848;DHT22;46681;47.696;9.140;2022-08-19T04:17:08;21.10;72.50
60848;DHT22;46681;47.696;9.140;2022-08-19T04:19:36;21.10;72.40
60848;DHT22;46681;47.696;9.140;2022-08-19T04:22:02;21.10;72.50
60848;DHT22;46681;47.696;9.140;2022-08-19T04:24:37;21.10;72.40
60848;DHT22;46681;47.696;9.140;2022-08-19T04:27:11;21.00;72.40
60848;DHT22;46681;47.696;9.140;2022-08-19T04:29:41;21.00;72.50
60848;DHT22;46681;47.696;9.140;2022-08-19T04:32:08;21.10;72.40
60848;DHT22;46681;47.696;9.140;2022-08-19T04:34:39;21.00;72.50
60848;DHT22;46681;47.696;9.140;2022-08-19T04:37:07;21.00;72.40
60848;DHT22;46681;47.696;9.140;2022-08-19T04:39:35;21.00;72.30
60848;DHT22;46681;47.696;9.140;2022-08-19T04:42:00;21.00;72.40
60848;DHT22;46681;47.696;9.140;2022-08-19T04:44:27;21.00;72.30
60848;DHT22;46681;47.696;9.140;2022-08-19T04:46:58;21.00;72.30
60848;DHT22;46681;47.696;9.140;2022-08-19T04:49:25;21.00;72.30
60848;DHT22;46681;47.696;9.140;2022-08-19T04:51:59;21.00;72.40
60848;DHT22;46681;47.696;9.140;2022-08-19T04:54:27;21.00;72.30
60848;DHT22;46681;47.696;9.140;2022-08-19T04:56:54;21.00;72.50
60848;DHT22;46681;47.696;9.140;2022-08-19T04:59:22;21.00;72.30
60848;DHT22;46681;47.696;9.140;2022-08-19T05:01:49;21.00;72.30
60848;DHT22;46681;47.696;9.140;2022-08-19T05:04:19;21.00;72.20
60848;DHT22;46681;47.696;9.140;2022-08-19T05:06:49;21.00;72.00
60848;DHT22;46681;47.696;9.140;2022-08-19T05:09:21;21.00;71.80
60848;DHT22;46681;47.696;9.140;2022-08-19T05:11:54;21.00;71.80
60848;DHT22;46681;47.696;9.140;2022-08-19T05:14:25;21.00;71.90
60848;DHT22;46681;47.696;9.140;2022-08-19T05:16:55;21.00;72.00
60848;DHT22;46681;47.696;9.140;2022-08-19T05:19:23;21.00;72.00
60848;DHT22;46681;47.696;9.140;2022-08-19T05:21:48;21.00;72.10
60848;DHT22;46681;47.696;9.140;2022-08-19T05:24:17;21.00;72.10
60848;DHT22;46681;47.696;9.140;2022-08-19T05:26:53;21.00;72.20
60848;DHT22;46681;47.696;9.140;2022-08-19T05:29:29;21.00;72.20
60848;DHT22;46681;47.696;9.140;2022-08-19T05:32:02;21.00;72.20
60848;DHT22;46681;47.696;9.140;2022-08-19T05:34:31;21.00;72.20
60848;DHT22;46681;47.696;9.140;2022-08-19T05:37:11;21.00;72.20
60848;DHT22;46681;47.696;9.140;2022-08-19T05:39:38;20.90;72.20
60848;DHT22;46681;47.696;9.140;2022-08-19T05:42:26;20.90;72.10
60848;DHT22;46681;47.696;9.140;2022-08-19T05:44:56;20.90;72.10
60848;DHT22;46681;47.696;9.140;2022-08-19T05:47:25;20.90;72.10
60848;DHT22;46681;47.696;9.140;2022-08-19T05:49:52;20.90;72.10
60848;DHT22;46681;47.696;9.140;2022-08-19T05:52:21;20.90;72.10
60848;DHT22;46681;47.696;9.140;2022-08-19T05:54:50;20.90;72.10
60848;DHT22;46681;47.696;9.140;2022-08-19T05:57:19;20.90;72.10
60848;DHT22;46681;47.696;9.140;2022-08-19T05:59:48;20.90;72.10
60848;DHT22;46681;47.696;9.140;2022-08-19T06:02:16;20.90;72.00
60848;DHT22;46681;47.696;9.140;2022-08-19T06:04:48;20.90;72.90
60848;DHT22;46681;47.696;9.140;2022-08-19T06:07:18;20.90;72.10
60848;DHT22;46681;47.696;9.140;2022-08-19T06:09:46;20.90;72.20
60848;DHT22;46681;47.696;9.140;2022-08-19T06:12:20;20.90;72.10
60848;DHT22;46681;47.696;9.140;2022-08-19T06:14:50;20.90;72.10
60848;DHT22;46681;47.696;9.140;2022-08-19T06:17:20;20.90;72.10
60848;DHT22;46681;47.696;9.140;2022-08-19T06:19:55;20.90;72.10
60848;DHT22;46681;47.696;9.140;2022-08-19T06:22:28;20.90;72.00
60848;DHT22;46681;47.696;9.140;2022-08-19T06:24:58;20.90;71.90
60848;DHT22;46681;47.696;9.140;2022-08-19T06:27:25;20.90;72.00
60848;DHT22;46681;47.696;9.140;2022-08-19T06:29:54;20.90;72.00
60848;DHT22;46681;47.696;9.140;2022-08-19T06:32:24;20.90;72.00
60848;DHT22;46681;47.696;9.140;2022-08-19T06:34:49;20.90;71.90
60848;DHT22;46681;47.696;9.140;2022-08-19T06:37:16;20.90;71.90
60848;DHT22;46681;47.696;9.140;2022-08-19T06:39:52;20.90;71.90
60848;DHT22;46681;47.696;9.140;2022-08-19T06:42:43;20.90;71.80
60848;DHT22;46681;47.696;9.140;2022-08-19T06:45:23;20.90;71.80
60848;DHT22;46681;47.696;9.140;2022-08-19T06:48:08;20.90;71.80
60848;DHT22;46681;47.696;9.140;2022-08-19T06:50:51;20.90;72.20
60848;DHT22;46681;47.696;9.140;2022-08-19T06:53:18;20.90;72.10
60848;DHT22;46681;47.696;9.140;2022-08-19T06:56:03;21.00;72.10
60848;DHT22;46681;47.696;9.140;2022-08-19T06:58:34;21.00;72.10
60848;DHT22;46681;47.696;9.140;2022-08-19T07:01:03;21.00;72.00
60848;DHT22;46681;47.696;9.140;2022-08-19T07:03:46;21.00;72.40
60848;DHT22;46681;47.696;9.140;2022-08-19T07:06:18;20.90;72.10
60848;DHT22;46681;47.696;9.140;2022-08-19T07:08:57;21.00;71.90
60848;DHT22;46681;47.696;9.140;2022-08-19T07:11:26;21.00;71.80
60848;DHT22;46681;47.696;9.140;2022-08-19T07:14:05;21.00;71.80
60848;DHT22;46681;47.696;9.140;2022-08-19T07:19:41;21.00;71.70
60848;DHT22;46681;47.696;9.140;2022-08-19T07:22:16;21.00;71.70
60848;DHT22;46681;47.696;9.140;2022-08-19T07:24:48;21.00;71.60
60848;DHT22;46681;47.696;9.140;2022-08-19T07:27:19;21.00;71.50
60848;DHT22;46681;47.696;9.140;2022-08-19T07:29:54;21.00;71.50
60848;DHT22;46681;47.696;9.140;2022-08-19T07:32:31;21.10;71.60
60848;DHT22;46681;47.696;9.140;2022-08-19T07:38:15;21.10;71.40
60848;DHT22;46681;47.696;9.140;2022-08-19T07:40:50;21.00;71.40
60848;DHT22;46681;47.696;9.140;2022-08-19T07:43:39;21.10;71.40
60848;DHT22;46681;47.696;9.140;2022-08-19T07:46:12;21.10;71.40
60848;DHT22;46681;47.696;9.140;2022-08-19T07:49:11;21.10;71.60
60848;DHT22;46681;47.696;9.140;2022-08-19T07:51:55;21.10;71.70
60848;DHT22;46681;47.696;9.140;2022-08-19T07:54:48;21.10;71.70
60848;DHT22;46681;47.696;9.140;2022-08-19T07:57:18;21.10;71.60
60848;DHT22;46681;47.696;9.140;2022-08-19T08:03:02;21.10;71.50
60848;DHT22;46681;47.696;9.140;2022-08-19T08:05:48;21.10;71.60
60848;DHT22;46681;47.696;9.140;2022-08-19T08:08:46;21.10;71.50
60848;DHT22;46681;47.696;9.140;2022-08-19T08:11:28;21.10;71.50
60848;DHT22;46681;47.696;9.140;2022-08-19T08:14:13;21.10;71.30
60848;DHT22;46681;47.696;9.140;2022-08-19T08:19:51;21.10;71.20
60848;DHT22;46681;47.696;9.140;2022-08-19T08:22:37;21.10;71.40
60848;DHT22;46681;47.696;9.140;2022-08-19T08:25:38;21.10;71.20
60848;DHT22;46681;47.696;9.140;2022-08-19T08:28:13;21.10;71.30
60848;DHT22;46681;47.696;9.140;2022-08-19T08:30:38;21.10;71.20
60848;DHT22;46681;47.696;9.140;2022-08-19T08:33:07;21.10;71.40
60848;DHT22;46681;47.696;9.140;2022-08-19T08:35:45;21.00;71.20
60848;DHT22;46681;47.696;9.140;2022-08-19T08:38:24;21.00;71.20
60848;DHT22;46681;47.696;9.140;2022-08-19T08:41:14;21.00;71.30
60848;DHT22;46681;47.696;9.140;2022-08-19T08:44:04;21.00;71.10
60848;DHT22;46681;47.696;9.140;2022-08-19T08:46:53;21.00;71.20
60848;DHT22;46681;47.696;9.140;2022-08-19T08:50:05;21.00;71.00
60848;DHT22;46681;47.696;9.140;2022-08-19T08:52:47;21.00;71.10
60848;DHT22;46681;47.696;9.140;2022-08-19T08:55:33;21.00;71.00
60848;DHT22;46681;47.696;9.140;2022-08-19T09:01:17;21.00;71.20
60848;DHT22;46681;47.696;9.140;2022-08-19T09:03:44;21.00;71.20
60848;DHT22;46681;47.696;9.140;2022-08-19T09:06:43;21.00;71.20
60848;DHT22;46681;47.696;9.140;2022-08-19T09:10:04;21.00;71.10
60848;DHT22;46681;47.696;9.140;2022-08-19T09:19:09;21.00;71.20
60848;DHT22;46681;47.696;9.140;2022-08-19T09:21:57;21.00;71.10
60848;DHT22;46681;47.696;9.140;2022-08-19T09:24:33;21.00;71.10
60848;DHT22;46681;47.696;9.140;2022-08-19T09:27:09;21.00;71.00
60848;DHT22;46681;47.696;9.140;2022-08-19T09:29:36;21.00;70.90
60848;DHT22;46681;47.696;9.140;2022-08-19T09:32:30;20.90;71.00
60848;DHT22;46681;47.696;9.140;2022-08-19T09:35:28;20.90;71.00
60848;DHT22;46681;47.696;9.140;2022-08-19T09:38:27;20.90;71.40
60848;DHT22;46681;47.696;9.140;2022-08-19T09:41:30;20.80;70.90
60848;DHT22;46681;47.696;9.140;2022-08-19T09:44:32;20.90;71.00
60848;DHT22;46681;47.696;9.140;2022-08-19T09:47:34;20.90;71.10
60848;DHT22;46681;47.696;9.140;2022-08-19T09:50:27;20.80;70.90
60848;DHT22;46681;47.696;9.140;2022-08-19T09:53:06;20.80;71.20
60848;DHT22;46681;47.696;9.140;2022-08-19T09:56:03;20.80;70.90
60848;DHT22;46681;47.696;9.140;2022-08-19T09:59:09;20.80;71.00
60848;DHT22;46681;47.696;9.140;2022-08-19T10:04:50;20.80;71.30
60848;DHT22;46681;47.696;9.140;2022-08-19T10:07:19;20.80;71.10
60848;DHT22;46681;47.696;9.140;2022-08-19T10:10:14;20.80;71.10
60848;DHT22;46681;47.696;9.140;2022-08-19T10:12:54;20.70;71.10
60848;DHT22;46681;47.696;9.140;2022-08-19T10:15:44;20.80;71.40
60848;DHT22;46681;47.696;9.140;2022-08-19T10:19:00;20.70;71.60
60848;DHT22;46681;47.696;9.140;2022-08-19T10:21:58;20.70;71.00
60848;DHT22;46681;47.696;9.140;2022-08-19T10:27:36;20.70;71.20
60848;DHT22;46681;47.696;9.140;2022-08-19T10:30:20;20.70;71.20
60848;DHT22;46681;47.696;9.140;2022-08-19T10:32:56;20.70;71.20
60848;DHT22;46681;47.696;9.140;2022-08-19T10:35:28;20.70;71.30
60848;DHT22;46681;47.696;9.140;2022-08-19T10:37:55;20.70;71.30
60848;DHT22;46681;47.696;9.140;2022-08-19T10:40:23;20.70;71.30
60848;DHT22;46681;47.696;9.140;2022-08-19T10:43:26;20.70;71.50
60848;DHT22;46681;47.696;9.140;2022-08-19T10:46:06;20.70;72.00
60848;DHT22;46681;47.696;9.140;2022-08-19T10:49:12;20.70;71.60
60848;DHT22;46681;47.696;9.140;2022-08-19T10:51:45;20.70;71.60
60848;DHT22;46681;47.696;9.140;2022-08-19T10:54:20;20.70;71.60
60848;DHT22;46681;47.696;9.140;2022-08-19T10:57:00;20.70;71.70
60848;DHT22;46681;47.696;9.140;2022-08-19T10:59:48;20.70;71.60
60848;DHT22;46681;47.696;9.140;2022-08-19T11:02:46;20.70;71.80
60848;DHT22;46681;47.696;9.140;2022-08-19T11:05:37;20.70;71.60
60848;DHT22;46681;47.696;9.140;2022-08-19T11:08:36;20.70;71.40
60848;DHT22;46681;47.696;9.140;2022-08-19T11:11:26;20.70;71.50
60848;DHT22;46681;47.696;9.140;2022-08-19T11:13:52;20.70;71.40
60848;DHT22;46681;47.696;9.140;2022-08-19T11:16:24;20.70;71.70
60848;DHT22;46681;47.696;9.140;2022-08-19T11:19:19;20.70;71.50
60848;DHT22;46681;47.696;9.140;2022-08-19T11:21:48;20.70;71.60
60848;DHT22;46681;47.696;9.140;2022-08-19T11:24:38;20.70;71.60
60848;DHT22;46681;47.696;9.140;2022-08-19T11:27:08;20.70;71.60
60848;DHT22;46681;47.696;9.140;2022-08-19T11:29:45;20.70;71.50
60848;DHT22;46681;47.696;9.140;2022-08-19T11:32:23;20.70;71.40
60848;DHT22;46681;47.696;9.140;2022-08-19T11:34:55;20.70;71.70
60848;DHT22;46681;47.696;9.140;2022-08-19T11:37:22;20.70;71.50
60848;DHT22;46681;47.696;9.140;2022-08-19T11:39:50;20.70;71.60
60848;DHT22;46681;47.696;9.140;2022-08-19T11:42:26;20.70;71.60
60848;DHT22;46681;47.696;9.140;2022-08-19T11:44:53;20.70;71.60
60848;DHT22;46681;47.696;9.140;2022-08-19T11:47:22;20.70;71.70
60848;DHT22;46681;47.696;9.140;2022-08-19T11:49:56;20.70;71.70
60848;DHT22;46681;47.696;9.140;2022-08-19T11:52:24;20.60;71.50
60848;DHT22;46681;47.696;9.140;2022-08-19T11:55:12;20.60;71.40
60848;DHT22;46681;47.696;9.140;2022-08-19T11:57:38;20.60;71.50
60848;DHT22;46681;47.696;9.140;2022-08-19T12:00:12;20.60;71.60
60848;DHT22;46681;47.696;9.140;2022-08-19T12:02:40;20.60;71.50
60848;DHT22;46681;47.696;9.140;2022-08-19T12:05:13;20.60;71.70
60848;DHT22;46681;47.696;9.140;2022-08-19T12:07:40;20.60;71.60
60848;DHT22;46681;47.696;9.140;2022-08-19T12:10:10;20.60;71.70
60848;DHT22;46681;47.696;9.140;2022-08-19T12:12:46;20.60;71.50
60848;DHT22;46681;47.696;9.140;2022-08-19T12:15:40;20.60;71.40
60848;DHT22;46681;47.696;9.140;2022-08-19T12:18:39;20.60;71.40
60848;DHT22;46681;47.696;9.140;2022-08-19T12:21:36;20.60;71.40
60848;DHT22;46681;47.696;9.140;2022-08-19T12:24:11;20.60;71.60
60848;DHT22;46681;47.696;9.140;2022-08-19T12:27:02;20.60;72.00
60848;DHT22;46681;47.696;9.140;2022-08-19T12:29:31;20.60;72.20
60848;DHT22;46681;47.696;9.140;2022-08-19T12:32:12;20.60;72.10
60848;DHT22;46681;47.696;9.140;2022-08-19T12:34:48;20.60;72.10
60848;DHT22;46681;47.696;9.140;2022-08-19T12:37:40;20.60;72.00
60848;DHT22;46681;47.696;9.140;2022-08-19T12:40:40;20.60;71.80
60848;DHT22;46681;47.696;9.140;2022-08-19T12:43:20;20.60;71.70
60848;DHT22;46681;47.696;9.140;2022-08-19T12:45:54;20.70;71.90
60848;DHT22;46681;47.696;9.140;2022-08-19T12:48:28;20.60;71.80
60848;DHT22;46681;47.696;9.140;2022-08-19T12:51:15;20.60;71.70
60848;DHT22;46681;47.696;9.140;2022-08-19T12:53:46;20.70;72.00
60848;DHT22;46681;47.696;9.140;2022-08-19T12:56:20;20.70;72.40
60848;DHT22;46681;47.696;9.140;2022-08-19T12:58:48;20.70;72.20
60848;DHT22;46681;47.696;9.140;2022-08-19T13:01:20;20.70;71.90
60848;DHT22;46681;47.696;9.140;2022-08-19T13:03:47;20.70;72.10
60848;DHT22;46681;47.696;9.140;2022-08-19T13:06:31;20.70;71.90
60848;DHT22;46681;47.696;9.140;2022-08-19T13:08:58;20.70;72.00
60848;DHT22;46681;47.696;9.140;2022-08-19T13:11:29;20.70;73.10
60848;DHT22;46681;47.696;9.140;2022-08-19T13:14:03;20.80;73.00
60848;DHT22;46681;47.696;9.140;2022-08-19T13:16:46;20.80;72.90
60848;DHT22;46681;47.696;9.140;2022-08-19T13:19:22;20.80;72.60
60848;DHT22;46681;47.696;9.140;2022-08-19T13:21:54;20.80;72.40
60848;DHT22;46681;47.696;9.140;2022-08-19T13:24:26;20.80;72.20
60848;DHT22;46681;47.696;9.140;2022-08-19T13:27:01;20.80;72.20
60848;DHT22;46681;47.696;9.140;2022-08-19T13:29:33;20.80;72.00
60848;DHT22;46681;47.696;9.140;2022-08-19T13:32:08;20.80;72.00
60848;DHT22;46681;47.696;9.140;2022-08-19T13:34:50;20.80;72.10
60848;DHT22;46681;47.696;9.140;2022-08-19T13:37:31;20.80;71.90
60848;DHT22;46681;47.696;9.140;2022-08-19T13:40:14;20.80;71.80
60848;DHT22;46681;47.696;9.140;2022-08-19T13:43:00;20.80;71.70
60848;DHT22;46681;47.696;9.140;2022-08-19T13:45:56;20.90;71.70
60848;DHT22;46681;47.696;9.140;2022-08-19T13:48:27;20.90;71.60
60848;DHT22;46681;47.696;9.140;2022-08-19T13:51:04;20.90;71.70
60848;DHT22;46681;47.696;9.140;2022-08-19T13:53:48;20.90;71.50
60848;DHT22;46681;47.696;9.140;2022-08-19T13:56:19;21.00;71.60
60848;DHT22;46681;47.696;9.140;2022-08-19T13:58:54;20.90;71.50
60848;DHT22;46681;47.696;9.140;2022-08-19T14:01:21;20.90;71.40
60848;DHT22;46681;47.696;9.140;2022-08-19T14:04:07;20.90;71.40
60848;DHT22;46681;47.696;9.140;2022-08-19T14:06:35;20.90;71.90
60848;DHT22;46681;47.696;9.140;2022-08-19T14:09:04;20.90;71.50
60848;DHT22;46681;47.696;9.140;2022-08-19T14:11:37;20.90;71.40
60848;DHT22;46681;47.696;9.140;2022-08-19T14:14:06;20.90;71.60
60848;DHT22;46681;47.696;9.140;2022-08-19T14:16:52;20.90;71.70
60848;DHT22;46681;47.696;9.140;2022-08-19T14:19:21;20.90;71.50
60848;DHT22;46681;47.696;9.140;2022-08-19T14:25:17;21.00;71.50
60848;DHT22;46681;47.696;9.140;2022-08-19T14:27:56;21.00;71.60
60848;DHT22;46681;47.696;9.140;2022-08-19T14:30:36;20.90;71.40
60848;DHT22;46681;47.696;9.140;2022-08-19T14:33:28;21.00;71.60
60848;DHT22;46681;47.696;9.140;2022-08-19T14:36:07;20.90;71.40
60848;DHT22;46681;47.696;9.140;2022-08-19T14:38:39;20.90;71.50
60848;DHT22;46681;47.696;9.140;2022-08-19T14:41:23;20.90;71.30
60848;DHT22;46681;47.696;9.140;2022-08-19T14:43:58;20.90;71.50
60848;DHT22;46681;47.696;9.140;2022-08-19T14:46:51;20.90;71.40
60848;DHT22;46681;47.696;9.140;2022-08-19T14:49:22;21.00;71.50
60848;DHT22;46681;47.696;9.140;2022-08-19T14:51:58;21.00;71.60
60848;DHT22;46681;47.696;9.140;2022-08-19T14:54:28;21.00;71.60
60848;DHT22;46681;47.696;9.140;2022-08-19T14:57:12;20.90;71.40
60848;DHT22;46681;47.696;9.140;2022-08-19T14:59:48;21.00;71.30
60848;DHT22;46681;47.696;9.140;2022-08-19T15:02:24;21.00;71.50
60848;DHT22;46681;47.696;9.140;2022-08-19T15:05:05;21.00;71.40
60848;DHT22;46681;47.696;9.140;2022-08-19T15:07:48;21.00;71.50
60848;DHT22;46681;47.696;9.140;2022-08-19T15:10:35;21.00;71.40
60848;DHT22;46681;47.696;9.140;2022-08-19T15:13:22;21.00;71.40
60848;DHT22;46681;47.696;9.140;2022-08-19T15:16:06;21.00;71.30
60848;DHT22;46681;47.696;9.140;2022-08-19T15:18:41;21.00;71.30
60848;DHT22;46681;47.696;9.140;2022-08-19T15:21:29;21.00;71.40
60848;DHT22;46681;47.696;9.140;2022-08-19T15:24:13;21.00;71.90
60848;DHT22;46681;47.696;9.140;2022-08-19T15:26:40;21.00;71.40
60848;DHT22;46681;47.696;9.140;2022-08-19T15:29:14;21.00;71.60
60848;DHT22;46681;47.696;9.140;2022-08-19T15:32:02;21.00;71.50
60848;DHT22;46681;47.696;9.140;2022-08-19T15:37:36;21.00;71.50
60848;DHT22;46681;47.696;9.140;2022-08-19T15:43:34;21.00;71.50
60848;DHT22;46681;47.696;9.140;2022-08-19T15:46:36;21.00;71.40
60848;DHT22;46681;47.696;9.140;2022-08-19T15:49:28;21.00;71.30
60848;DHT22;46681;47.696;9.140;2022-08-19T15:57:04;21.00;71.10
60848;DHT22;46681;47.696;9.140;2022-08-19T15:59:29;21.00;71.10
60848;DHT22;46681;47.696;9.140;2022-08-19T16:01:56;21.00;71.10
60848;DHT22;46681;47.696;9.140;2022-08-19T16:04:25;21.00;71.00
60848;DHT22;46681;47.696;9.140;2022-08-19T16:07:26;21.00;71.10
60848;DHT22;46681;47.696;9.140;2022-08-19T16:09:54;21.00;70.90
60848;DHT22;46681;47.696;9.140;2022-08-19T16:12:30;21.00;71.00
60848;DHT22;46681;47.696;9.140;2022-08-19T16:15:10;21.00;70.90
60848;DHT22;46681;47.696;9.140;2022-08-19T16:17:42;21.10;70.90
60848;DHT22;46681;47.696;9.140;2022-08-19T16:20:25;21.00;70.80
60848;DHT22;46681;47.696;9.140;2022-08-19T16:22:59;21.00;70.80
60848;DHT22;46681;47.696;9.140;2022-08-19T16:25:26;21.00;70.80
60848;DHT22;46681;47.696;9.140;2022-08-19T16:27:56;21.10;70.70
60848;DHT22;46681;47.696;9.140;2022-08-19T16:30:25;21.10;70.70
60848;DHT22;46681;47.696;9.140;2022-08-19T16:32:54;21.10;70.70
60848;DHT22;46681;47.696;9.140;2022-08-19T16:35:20;21.10;70.80
60848;DHT22;46681;47.696;9.140;2022-08-19T16:37:59;21.10;70.60
60848;DHT22;46681;47.696;9.140;2022-08-19T16:40:26;21.10;70.70
60848;DHT22;46681;47.696;9.140;2022-08-19T16:42:53;21.10;70.70
60848;DHT22;46681;47.696;9.140;2022-08-19T16:45:30;21.10;70.60
60848;DHT22;46681;47.696;9.140;2022-08-19T16:48:05;21.10;70.60
60848;DHT22;46681;47.696;9.140;2022-08-19T16:50:32;21.10;70.60
60848;DHT22;46681;47.696;9.140;2022-08-19T16:53:31;21.10;70.60
60848;DHT22;46681;47.696;9.140;2022-08-19T16:56:13;21.10;70.50
60848;DHT22;46681;47.696;9.140;2022-08-19T16:58:52;21.10;70.40
60848;DHT22;46681;47.696;9.140;2022-08-19T17:01:18;21.10;70.50
60848;DHT22;46681;47.696;9.140;2022-08-19T17:03:52;21.10;70.50
60848;DHT22;46681;47.696;9.140;2022-08-19T17:06:26;21.10;70.60
60848;DHT22;46681;47.696;9.140;2022-08-19T17:09:12;21.10;70.50